Racine, Missouri
Current Conditions -  °F | °C
As of 1:33 AM on Sunday 23 Nov 2014 (Local Time) from KJLN Reporting Station
Overcast Overcast  
Wind Chill: 57°   Ceiling: 1900
Heat Index: 57°   Visibility: 10mi
Dew Point: 52°   Wind: 13mph
Humidity: 83%   Direction: 160°SSE
Pressure: 29.68"   Gusts: NA
Location:  36.9°N, 94.53°W
Report Text: KJLN 230733Z AUTO 16011KT 10SM BKN019 OVC095 14/11 A2968 RMK AO2 T01390111
Loading
Personal Weather Stations






























Interactive Weather Map New forecast layout! Learn more

10-Day Weather Forecast

Advertisements
Track Severe Weather on mobile